CDT,Max TemperatureF,Mean TemperatureF,Min TemperatureF,Max Dew PointF,MeanDew PointF,Min DewpointF,Max Humidity, Mean Humidity, Min Humidity, Max Sea Level PressureIn, Mean Sea Level PressureIn, Min Sea Level PressureIn, Max VisibilityMiles, Mean VisibilityMiles, Min VisibilityMiles, Max Wind SpeedMPH, Mean Wind SpeedMPH, Max Gust SpeedMPH,PrecipitationIn, CloudCover, Events, WindDirDegrees
2012-10-1,70,55,39,47,36,27,64,43,22,30.06,30.00,29.88,,,,24,12,31,0.00,,,351
2012-10-2,76,57,37,31,27,24,70,43,15,29.98,29.83,29.72,,,,26,11,33,0.00,,,200
2012-10-3,72,57,42,41,33,26,82,53,23,29.85,29.81,29.74,,,,33,14,43,0.00,,,23
2012-10-4,46,40,34,38,33,26,92,76,59,30.28,30.11,29.81,,,,38,24,48,0.02,,,331
2012-10-5,43,36,29,30,25,22,89,69,49,30.33,30.28,30.25,,,,28,18,38,0.00,,,333
2012-10-6,45,35,24,31,25,17,92,66,40,30.43,30.35,30.27,,,,18,10,23,0.01,,,348
2012-10-7,58,43,28,25,22,17,75,48,21,30.24,30.00,29.79,,,,22,12,30,0.00,,,250
2012-10-8,65,55,44,41,33,27,65,54,43,29.77,29.66,29.55,,,,30,14,38,0.00,,,274
2012-10-9,46,38,30,31,26,21,75,59,43,30.07,29.90,29.73,,,,30,15,36,0.00,,,326
2012-10-10,60,45,29,30,26,21,92,60,27,30.09,29.98,29.78,,,,21,10,25,0.00,,,278
2012-10-11,47,34,20,36,26,18,100,69,37,30.45,30.24,29.92,,,,21,10,26,0.01,,,356
2012-10-12,55,37,19,31,17,12,84,52,19,30.46,30.22,29.84,,,,29,15,36,0.00,,,181
2012-10-13,70,54,37,41,38,33,85,61,36,29.85,29.72,29.64,,,,24,7,33,0.00,,,256
2012-10-14,60,47,33,35,32,30,82,61,40,29.97,29.91,29.82,,,,22,12,28,0.00,,,345
2012-10-15,71,50,28,38,34,26,92,60,28,29.96,29.79,29.56,,,,26,11,32,0.00,,,198
2012-10-16,74,64,53,48,44,39,72,53,33,29.56,29.42,29.24,,,,17,5,23,0.00,,,278
2012-10-17,57,49,41,54,44,39,100,86,72,29.32,29.23,29.16,,,,32,20,45,0.69,,,307
2012-10-18,48,45,41,47,42,38,100,93,86,29.58,29.36,29.21,,,,43,29,54,1.11,,,343
2012-10-19,44,42,40,41,40,39,100,95,89,29.80,29.74,29.60,,,,36,16,44,0.15,,,355
2012-10-20,56,46,35,48,42,35,100,89,77,29.78,29.71,29.64,,,,20,9,24,0.00,,,163
2012-10-21,55,47,39,49,44,39,100,92,83,30.03,29.82,29.69,,,,21,8,25,0.00,,,19
2012-10-22,57,48,39,49,44,38,100,84,67,30.05,29.97,29.84,,,,14,9,18,0.00,,,53
2012-10-23,59,53,47,56,51,46,100,93,86,29.82,29.71,29.62,,,,22,7,29,0.00,,,158
2012-10-24,48,41,33,44,37,32,100,88,76,30.02,29.94,29.84,,,,26,14,33,0.07,,,354
2012-10-25,38,35,32,32,27,23,96,78,59,30.25,30.09,29.99,,,,31,20,38,0.00,,,337
2012-10-26,40,36,32,25,22,20,72,60,48,30.41,30.35,30.26,,,,25,13,33,0.00,,,302
2012-10-27,43,32,21,32,23,18,88,66,43,30.38,30.32,30.26,,,,15,6,18,0.00,,,196
2012-10-28,44,39,33,33,32,31,96,79,62,30.30,30.25,30.18,,,,13,5,16,0.00,,,67
2012-10-29,54,45,35,33,32,31,89,67,45,30.19,30.15,30.11,,,,17,11,24,0.00,,,169
2012-10-30,46,39,31,32,29,26,89,67,45,30.18,30.15,30.10,,,,18,10,23,0.00,,,172
2012-10-31,62,45,28,41,33,25,92,66,39,30.09,30.02,29.94,,,,23,7,26,0.00,,,269